sensor_id;sensor_type;location;lat;lon;timestamp;pressure;altitude;pressure_sealevel;temperature;humidity
7660;BME280;3872;47.902;8.162;2024-03-22T00:00:46;92592.16;;;12.08;66.32
7660;BME280;3872;47.902;8.162;2024-03-22T00:03:12;92587.81;;;12.17;67.23
7660;BME280;3872;47.902;8.162;2024-03-22T00:05:40;92590.69;;;12.21;67.79
7660;BME280;3872;47.902;8.162;2024-03-22T00:08:05;92592.16;;;11.89;68.60
7660;BME280;3872;47.902;8.162;2024-03-22T00:10:32;92596.19;;;11.82;68.06
7660;BME280;3872;47.902;8.162;2024-03-22T00:12:58;92593.91;;;11.75;69.15
7660;BME280;3872;47.902;8.162;2024-03-22T00:15:24;92589.78;;;11.88;69.21
7660;BME280;3872;47.902;8.162;2024-03-22T00:17:50;92586.44;;;12.01;68.81
7660;BME280;3872;47.902;8.162;2024-03-22T00:20:17;92579.09;;;12.16;68.05
7660;BME280;3872;47.902;8.162;2024-03-22T00:22:44;92577.03;;;11.76;69.30
7660;BME280;3872;47.902;8.162;2024-03-22T00:25:11;92576.69;;;11.11;75.90
7660;BME280;3872;47.902;8.162;2024-03-22T00:27:37;92580.94;;;11.55;72.85
7660;BME280;3872;47.902;8.162;2024-03-22T00:30:05;92584.31;;;11.60;72.58
7660;BME280;3872;47.902;8.162;2024-03-22T00:32:31;92581.72;;;11.55;71.77
7660;BME280;3872;47.902;8.162;2024-03-22T00:34:57;92582.84;;;11.25;72.98
7660;BME280;3872;47.902;8.162;2024-03-22T00:37:23;92583.34;;;11.04;75.23
7660;BME280;3872;47.902;8.162;2024-03-22T00:39:51;92578.41;;;11.45;72.61
7660;BME280;3872;47.902;8.162;2024-03-22T00:42:16;92576.00;;;11.24;73.08
7660;BME280;3872;47.902;8.162;2024-03-22T00:44:43;92581.50;;;11.52;71.26
7660;BME280;3872;47.902;8.162;2024-03-22T00:47:08;92571.63;;;11.62;68.98
7660;BME280;3872;47.902;8.162;2024-03-22T00:49:35;92573.88;;;11.74;68.39
7660;BME280;3872;47.902;8.162;2024-03-22T00:52:00;92566.22;;;11.96;68.91
7660;BME280;3872;47.902;8.162;2024-03-22T00:54:29;92565.78;;;11.89;67.60
7660;BME280;3872;47.902;8.162;2024-03-22T00:56:56;92567.78;;;11.55;70.91
7660;BME280;3872;47.902;8.162;2024-03-22T00:59:22;92563.97;;;11.42;71.56
7660;BME280;3872;47.902;8.162;2024-03-22T01:01:48;92563.09;;;11.70;69.17
7660;BME280;3872;47.902;8.162;2024-03-22T01:04:14;92560.22;;;11.48;69.87
7660;BME280;3872;47.902;8.162;2024-03-22T01:06:40;92566.66;;;11.37;69.00
7660;BME280;3872;47.902;8.162;2024-03-22T01:09:07;92562.81;;;11.29;69.20
7660;BME280;3872;47.902;8.162;2024-03-22T01:11:32;92557.81;;;11.28;69.81
7660;BME280;3872;47.902;8.162;2024-03-22T01:14:00;92562.66;;;11.39;70.09
7660;BME280;3872;47.902;8.162;2024-03-22T01:16:26;92554.22;;;11.19;70.52
7660;BME280;3872;47.902;8.162;2024-03-22T01:18:52;92561.78;;;11.25;71.72
7660;BME280;3872;47.902;8.162;2024-03-22T01:21:18;92564.38;;;10.78;74.68
7660;BME280;3872;47.902;8.162;2024-03-22T01:23:44;92561.81;;;10.73;75.62
7660;BME280;3872;47.902;8.162;2024-03-22T01:26:10;92556.03;;;10.71;74.58
7660;BME280;3872;47.902;8.162;2024-03-22T01:28:36;92551.09;;;10.64;76.02
7660;BME280;3872;47.902;8.162;2024-03-22T01:31:03;92554.69;;;10.39;78.25
7660;BME280;3872;47.902;8.162;2024-03-22T01:33:30;92554.50;;;9.92;86.61
7660;BME280;3872;47.902;8.162;2024-03-22T01:35:55;92548.31;;;10.50;79.45
7660;BME280;3872;47.902;8.162;2024-03-22T01:38:22;92553.25;;;10.86;74.44
7660;BME280;3872;47.902;8.162;2024-03-22T01:40:48;92541.53;;;10.97;72.93
7660;BME280;3872;47.902;8.162;2024-03-22T01:43:14;92539.69;;;10.97;72.35
7660;BME280;3872;47.902;8.162;2024-03-22T01:45:40;92529.16;;;10.97;70.97
7660;BME280;3872;47.902;8.162;2024-03-22T01:48:08;92528.44;;;10.92;71.04
7660;BME280;3872;47.902;8.162;2024-03-22T01:50:34;92530.94;;;10.78;74.16
7660;BME280;3872;47.902;8.162;2024-03-22T01:53:01;92523.53;;;10.80;73.60
7660;BME280;3872;47.902;8.162;2024-03-22T01:55:27;92520.25;;;10.93;71.69
7660;BME280;3872;47.902;8.162;2024-03-22T01:57:55;92509.22;;;10.91;71.11
7660;BME280;3872;47.902;8.162;2024-03-22T02:00:22;92507.75;;;10.80;73.27
7660;BME280;3872;47.902;8.162;2024-03-22T02:02:48;92502.41;;;10.62;73.95
7660;BME280;3872;47.902;8.162;2024-03-22T02:05:16;92506.69;;;10.52;75.63
7660;BME280;3872;47.902;8.162;2024-03-22T02:07:44;92499.44;;;10.44;75.95
7660;BME280;3872;47.902;8.162;2024-03-22T02:10:10;92499.13;;;10.12;79.61
7660;BME280;3872;47.902;8.162;2024-03-22T02:12:37;92491.22;;;10.12;80.29
7660;BME280;3872;47.902;8.162;2024-03-22T02:15:03;92483.78;;;10.29;78.12
7660;BME280;3872;47.902;8.162;2024-03-22T02:17:31;92489.56;;;9.92;83.20
7660;BME280;3872;47.902;8.162;2024-03-22T02:19:56;92485.22;;;10.69;76.73
7660;BME280;3872;47.902;8.162;2024-03-22T02:22:25;92485.81;;;10.61;75.79
7660;BME280;3872;47.902;8.162;2024-03-22T02:24:52;92490.81;;;9.95;81.07
7660;BME280;3872;47.902;8.162;2024-03-22T02:27:19;92488.13;;;10.05;79.33
7660;BME280;3872;47.902;8.162;2024-03-22T02:29:45;92487.56;;;10.13;77.88
7660;BME280;3872;47.902;8.162;2024-03-22T02:32:11;92487.78;;;10.16;75.79
7660;BME280;3872;47.902;8.162;2024-03-22T02:34:37;92486.13;;;9.53;80.13
7660;BME280;3872;47.902;8.162;2024-03-22T02:37:04;92486.91;;;9.58;79.56
7660;BME280;3872;47.902;8.162;2024-03-22T02:39:30;92477.25;;;9.82;76.07
7660;BME280;3872;47.902;8.162;2024-03-22T02:41:57;92473.88;;;9.77;74.88
7660;BME280;3872;47.902;8.162;2024-03-22T02:44:23;92471.56;;;9.70;76.69
7660;BME280;3872;47.902;8.162;2024-03-22T02:46:50;92471.59;;;9.65;75.21
7660;BME280;3872;47.902;8.162;2024-03-22T02:49:15;92465.75;;;8.70;86.87
7660;BME280;3872;47.902;8.162;2024-03-22T02:51:42;92463.13;;;9.34;80.37
7660;BME280;3872;47.902;8.162;2024-03-22T02:54:07;92456.91;;;9.64;77.46
7660;BME280;3872;47.902;8.162;2024-03-22T02:56:34;92455.41;;;9.48;75.72
7660;BME280;3872;47.902;8.162;2024-03-22T02:59:01;92459.13;;;9.42;77.82
7660;BME280;3872;47.902;8.162;2024-03-22T03:01:27;92450.69;;;9.45;77.75
7660;BME280;3872;47.902;8.162;2024-03-22T03:03:53;92451.06;;;9.28;79.17
7660;BME280;3872;47.902;8.162;2024-03-22T03:06:19;92450.78;;;9.35;79.58
7660;BME280;3872;47.902;8.162;2024-03-22T03:08:45;92448.59;;;9.47;79.13
7660;BME280;3872;47.902;8.162;2024-03-22T03:11:13;92448.78;;;9.12;79.50
7660;BME280;3872;47.902;8.162;2024-03-22T03:13:39;92446.38;;;9.20;82.29
7660;BME280;3872;47.902;8.162;2024-03-22T03:16:07;92441.94;;;8.56;91.63
7660;BME280;3872;47.902;8.162;2024-03-22T03:18:32;92443.84;;;9.05;85.27
7660;BME280;3872;47.902;8.162;2024-03-22T03:20:59;92451.56;;;9.74;79.49
7660;BME280;3872;47.902;8.162;2024-03-22T03:23:24;92448.44;;;9.28;83.26
7660;BME280;3872;47.902;8.162;2024-03-22T03:25:51;92445.03;;;9.72;78.60
7660;BME280;3872;47.902;8.162;2024-03-22T03:28:17;92445.81;;;9.72;78.37
7660;BME280;3872;47.902;8.162;2024-03-22T03:30:43;92452.91;;;9.67;78.10
7660;BME280;3872;47.902;8.162;2024-03-22T03:33:10;92437.66;;;9.69;77.22
7660;BME280;3872;47.902;8.162;2024-03-22T03:35:37;92434.66;;;9.52;80.52
7660;BME280;3872;47.902;8.162;2024-03-22T03:38:02;92427.41;;;9.72;79.09
7660;BME280;3872;47.902;8.162;2024-03-22T03:40:29;92424.22;;;9.75;76.97
7660;BME280;3872;47.902;8.162;2024-03-22T03:42:55;92424.28;;;8.67;90.39
7660;BME280;3872;47.902;8.162;2024-03-22T03:45:21;92428.31;;;9.14;89.45
7660;BME280;3872;47.902;8.162;2024-03-22T03:47:47;92421.09;;;9.34;85.01
7660;BME280;3872;47.902;8.162;2024-03-22T03:50:15;92416.47;;;9.55;82.26
7660;BME280;3872;47.902;8.162;2024-03-22T03:52:40;92409.00;;;9.33;82.51
7660;BME280;3872;47.902;8.162;2024-03-22T03:55:07;92411.47;;;8.60;93.52
7660;BME280;3872;47.902;8.162;2024-03-22T03:57:33;92408.47;;;8.92;90.77
7660;BME280;3872;47.902;8.162;2024-03-22T03:59:59;92406.44;;;9.62;83.40
7660;BME280;3872;47.902;8.162;2024-03-22T04:02:25;92407.97;;;9.34;82.10
7660;BME280;3872;47.902;8.162;2024-03-22T04:04:52;92411.06;;;9.41;83.24
7660;BME280;3872;47.902;8.162;2024-03-22T04:07:19;92401.25;;;9.57;80.54
7660;BME280;3872;47.902;8.162;2024-03-22T04:09:45;92402.44;;;9.31;83.26
7660;BME280;3872;47.902;8.162;2024-03-22T04:12:11;92401.88;;;9.44;82.60
7660;BME280;3872;47.902;8.162;2024-03-22T04:14:37;92402.53;;;9.60;80.06
7660;BME280;3872;47.902;8.162;2024-03-22T04:17:03;92406.88;;;9.40;82.99
7660;BME280;3872;47.902;8.162;2024-03-22T04:19:30;92402.34;;;9.51;83.11
7660;BME280;3872;47.902;8.162;2024-03-22T04:21:55;92397.16;;;9.41;82.86
7660;BME280;3872;47.902;8.162;2024-03-22T04:24:27;92390.00;;;8.58;93.34
7660;BME280;3872;47.902;8.162;2024-03-22T04:26:52;92389.34;;;8.82;92.05
7660;BME280;3872;47.902;8.162;2024-03-22T04:29:19;92390.13;;;8.82;94.21
7660;BME280;3872;47.902;8.162;2024-03-22T04:31:44;92395.00;;;8.50;99.49
7660;BME280;3872;47.902;8.162;2024-03-22T04:34:11;92388.16;;;9.47;89.09
7660;BME280;3872;47.902;8.162;2024-03-22T04:36:36;92387.94;;;10.06;81.07
7660;BME280;3872;47.902;8.162;2024-03-22T04:39:03;92390.00;;;9.80;80.62
7660;BME280;3872;47.902;8.162;2024-03-22T04:41:31;92394.09;;;9.63;82.46
7660;BME280;3872;47.902;8.162;2024-03-22T04:43:57;92384.81;;;9.41;86.30
7660;BME280;3872;47.902;8.162;2024-03-22T04:46:23;92393.81;;;9.30;86.88
7660;BME280;3872;47.902;8.162;2024-03-22T04:48:49;92393.03;;;9.30;86.80
7660;BME280;3872;47.902;8.162;2024-03-22T04:51:15;92394.03;;;9.73;81.51
7660;BME280;3872;47.902;8.162;2024-03-22T04:53:41;92395.09;;;9.72;80.74
7660;BME280;3872;47.902;8.162;2024-03-22T04:56:07;92391.56;;;9.81;79.09
7660;BME280;3872;47.902;8.162;2024-03-22T04:58:36;92389.38;;;9.60;80.94
7660;BME280;3872;47.902;8.162;2024-03-22T05:01:01;92391.25;;;9.88;78.80
7660;BME280;3872;47.902;8.162;2024-03-22T05:03:28;92389.53;;;10.07;76.69
7660;BME280;3872;47.902;8.162;2024-03-22T05:05:53;92388.91;;;10.20;75.39
7660;BME280;3872;47.902;8.162;2024-03-22T05:08:20;92394.66;;;9.94;77.37
7660;BME280;3872;47.902;8.162;2024-03-22T05:10:46;92376.25;;;9.94;77.31
7660;BME280;3872;47.902;8.162;2024-03-22T05:13:12;92377.69;;;10.05;76.96
7660;BME280;3872;47.902;8.162;2024-03-22T05:15:39;92372.97;;;10.07;76.17
7660;BME280;3872;47.902;8.162;2024-03-22T05:18:06;92376.47;;;10.26;75.16
7660;BME280;3872;47.902;8.162;2024-03-22T05:20:32;92372.97;;;10.07;75.29
7660;BME280;3872;47.902;8.162;2024-03-22T05:22:58;92369.22;;;10.13;75.46
7660;BME280;3872;47.902;8.162;2024-03-22T05:25:24;92369.28;;;10.08;76.87
7660;BME280;3872;47.902;8.162;2024-03-22T05:27:51;92366.66;;;10.03;76.54
7660;BME280;3872;47.902;8.162;2024-03-22T05:30:17;92373.91;;;10.21;75.07
7660;BME280;3872;47.902;8.162;2024-03-22T05:32:45;92361.47;;;9.98;76.76
7660;BME280;3872;47.902;8.162;2024-03-22T05:35:10;92357.13;;;10.12;76.03
7660;BME280;3872;47.902;8.162;2024-03-22T05:37:37;92355.63;;;9.77;80.10
7660;BME280;3872;47.902;8.162;2024-03-22T05:40:03;92352.00;;;9.97;79.21
7660;BME280;3872;47.902;8.162;2024-03-22T05:42:30;92344.56;;;10.33;76.37
7660;BME280;3872;47.902;8.162;2024-03-22T05:44:55;92338.16;;;10.44;75.70
7660;BME280;3872;47.902;8.162;2024-03-22T05:47:22;92342.38;;;10.40;76.02
7660;BME280;3872;47.902;8.162;2024-03-22T05:49:49;92347.47;;;10.31;78.74
7660;BME280;3872;47.902;8.162;2024-03-22T05:52:16;92349.44;;;10.20;79.45
7660;BME280;3872;47.902;8.162;2024-03-22T05:54:42;92358.50;;;9.75;84.56
7660;BME280;3872;47.902;8.162;2024-03-22T05:57:09;92360.53;;;10.12;79.65
7660;BME280;3872;47.902;8.162;2024-03-22T05:59:35;92352.47;;;10.04;81.57
7660;BME280;3872;47.902;8.162;2024-03-22T06:02:02;92354.97;;;10.19;79.80
7660;BME280;3872;47.902;8.162;2024-03-22T06:04:28;92353.53;;;10.32;78.14
7660;BME280;3872;47.902;8.162;2024-03-22T06:06:56;92346.00;;;10.68;75.93
7660;BME280;3872;47.902;8.162;2024-03-22T06:09:25;92348.31;;;10.50;76.79
7660;BME280;3872;47.902;8.162;2024-03-22T06:12:00;92337.06;;;10.87;75.37
7660;BME280;3872;47.902;8.162;2024-03-22T06:14:27;92337.22;;;10.96;74.53
7660;BME280;3872;47.902;8.162;2024-03-22T06:16:53;92332.09;;;11.05;74.03
7660;BME280;3872;47.902;8.162;2024-03-22T06:19:20;92340.69;;;11.10;73.88
7660;BME280;3872;47.902;8.162;2024-03-22T06:21:45;92340.94;;;11.14;73.23
7660;BME280;3872;47.902;8.162;2024-03-22T06:24:13;92342.41;;;11.20;73.86
7660;BME280;3872;47.902;8.162;2024-03-22T06:26:40;92336.97;;;11.30;72.97
7660;BME280;3872;47.902;8.162;2024-03-22T06:29:06;92337.75;;;11.30;73.54
7660;BME280;3872;47.902;8.162;2024-03-22T06:31:32;92341.28;;;11.07;74.37
7660;BME280;3872;47.902;8.162;2024-03-22T06:33:58;92335.84;;;11.36;73.52
7660;BME280;3872;47.902;8.162;2024-03-22T06:36:27;92333.22;;;11.17;74.55
7660;BME280;3872;47.902;8.162;2024-03-22T06:38:54;92328.47;;;11.19;75.27
7660;BME280;3872;47.902;8.162;2024-03-22T06:41:22;92324.31;;;11.32;74.61
7660;BME280;3872;47.902;8.162;2024-03-22T06:43:48;92323.75;;;11.67;72.68
7660;BME280;3872;47.902;8.162;2024-03-22T06:46:14;92324.16;;;11.42;73.32
7660;BME280;3872;47.902;8.162;2024-03-22T06:48:41;92323.44;;;11.55;73.44
7660;BME280;3872;47.902;8.162;2024-03-22T06:51:06;92316.28;;;11.74;72.13
7660;BME280;3872;47.902;8.162;2024-03-22T06:53:33;92310.91;;;11.80;71.98
7660;BME280;3872;47.902;8.162;2024-03-22T06:55:58;92321.59;;;11.37;77.11
7660;BME280;3872;47.902;8.162;2024-03-22T06:58:26;92316.69;;;11.30;78.33
7660;BME280;3872;47.902;8.162;2024-03-22T07:00:52;92313.97;;;11.87;74.65
7660;BME280;3872;47.902;8.162;2024-03-22T07:03:19;92314.97;;;12.04;71.75
7660;BME280;3872;47.902;8.162;2024-03-22T07:05:46;92320.75;;;11.42;77.69
7660;BME280;3872;47.902;8.162;2024-03-22T07:08:13;92309.50;;;11.68;75.52
7660;BME280;3872;47.902;8.162;2024-03-22T07:10:39;92316.06;;;11.71;76.21
7660;BME280;3872;47.902;8.162;2024-03-22T07:13:06;92317.34;;;12.33;72.67
7660;BME280;3872;47.902;8.162;2024-03-22T07:15:34;92312.56;;;12.35;72.03
7660;BME280;3872;47.902;8.162;2024-03-22T07:18:00;92316.13;;;12.80;69.30
7660;BME280;3872;47.902;8.162;2024-03-22T07:20:27;92325.44;;;12.91;69.28
7660;BME280;3872;47.902;8.162;2024-03-22T07:22:53;92318.88;;;12.89;68.52
7660;BME280;3872;47.902;8.162;2024-03-22T07:25:19;92319.06;;;12.92;69.10
7660;BME280;3872;47.902;8.162;2024-03-22T07:27:46;92311.38;;;12.69;69.69
7660;BME280;3872;47.902;8.162;2024-03-22T07:30:13;92315.56;;;13.33;68.42
7660;BME280;3872;47.902;8.162;2024-03-22T07:32:41;92312.22;;;13.63;65.53
7660;BME280;3872;47.902;8.162;2024-03-22T07:35:07;92319.16;;;13.82;65.26
7660;BME280;3872;47.902;8.162;2024-03-22T07:37:33;92315.75;;;13.59;66.37
7660;BME280;3872;47.902;8.162;2024-03-22T07:39:59;92309.78;;;13.76;65.94
7660;BME280;3872;47.902;8.162;2024-03-22T07:42:26;92307.63;;;14.08;65.70
7660;BME280;3872;47.902;8.162;2024-03-22T07:44:51;92305.22;;;13.90;65.79
7660;BME280;3872;47.902;8.162;2024-03-22T07:47:18;92300.66;;;14.43;63.92
7660;BME280;3872;47.902;8.162;2024-03-22T07:49:46;92297.53;;;14.41;64.03
7660;BME280;3872;47.902;8.162;2024-03-22T07:52:12;92299.84;;;14.91;61.96
7660;BME280;3872;47.902;8.162;2024-03-22T07:54:38;92306.66;;;14.27;65.73
7660;BME280;3872;47.902;8.162;2024-03-22T07:57:04;92303.25;;;14.35;66.42
7660;BME280;3872;47.902;8.162;2024-03-22T07:59:30;92295.81;;;15.11;63.36
7660;BME280;3872;47.902;8.162;2024-03-22T08:01:57;92305.91;;;14.83;63.64
7660;BME280;3872;47.902;8.162;2024-03-22T08:04:23;92301.91;;;15.37;61.43
7660;BME280;3872;47.902;8.162;2024-03-22T08:06:51;92300.44;;;16.09;58.65
7660;BME280;3872;47.902;8.162;2024-03-22T08:09:17;92298.84;;;14.61;63.31
7660;BME280;3872;47.902;8.162;2024-03-22T08:11:46;92293.16;;;15.28;60.46
7660;BME280;3872;47.902;8.162;2024-03-22T08:14:11;92299.25;;;15.37;59.27
7660;BME280;3872;47.902;8.162;2024-03-22T08:16:38;92296.84;;;16.13;57.05
7660;BME280;3872;47.902;8.162;2024-03-22T08:19:03;92296.03;;;16.21;58.08
7660;BME280;3872;47.902;8.162;2024-03-22T08:21:30;92297.22;;;17.50;58.75
7660;BME280;3872;47.902;8.162;2024-03-22T08:23:58;92295.03;;;17.73;58.98
7660;BME280;3872;47.902;8.162;2024-03-22T08:26:24;92292.19;;;18.11;56.53
7660;BME280;3872;47.902;8.162;2024-03-22T08:28:50;92278.03;;;17.65;55.50
7660;BME280;3872;47.902;8.162;2024-03-22T08:31:16;92275.13;;;17.37;54.85
7660;BME280;3872;47.902;8.162;2024-03-22T08:33:42;92266.34;;;17.78;54.70
7660;BME280;3872;47.902;8.162;2024-03-22T08:36:09;92258.28;;;17.99;51.41
7660;BME280;3872;47.902;8.162;2024-03-22T08:38:35;92267.78;;;17.76;50.21
7660;BME280;3872;47.902;8.162;2024-03-22T08:41:03;92260.34;;;18.26;49.08
7660;BME280;3872;47.902;8.162;2024-03-22T08:43:29;92250.72;;;19.07;49.16
7660;BME280;3872;47.902;8.162;2024-03-22T08:45:56;92240.22;;;19.26;47.40
7660;BME280;3872;47.902;8.162;2024-03-22T08:48:21;92240.56;;;19.65;46.22
7660;BME280;3872;47.902;8.162;2024-03-22T08:50:49;92235.66;;;19.67;44.97
7660;BME280;3872;47.902;8.162;2024-03-22T08:53:14;92242.94;;;19.82;44.71
7660;BME280;3872;47.902;8.162;2024-03-22T08:55:45;92235.13;;;20.05;43.07
7660;BME280;3872;47.902;8.162;2024-03-22T08:58:12;92241.28;;;19.77;43.05
7660;BME280;3872;47.902;8.162;2024-03-22T09:00:39;92235.38;;;20.00;43.64
7660;BME280;3872;47.902;8.162;2024-03-22T09:03:04;92236.44;;;20.26;43.86
7660;BME280;3872;47.902;8.162;2024-03-22T09:05:31;92234.63;;;20.15;42.20
7660;BME280;3872;47.902;8.162;2024-03-22T09:07:57;92226.75;;;20.34;42.69
7660;BME280;3872;47.902;8.162;2024-03-22T09:10:23;92222.34;;;20.42;40.47
7660;BME280;3872;47.902;8.162;2024-03-22T09:12:50;92223.47;;;20.41;40.87
7660;BME280;3872;47.902;8.162;2024-03-22T09:15:17;92214.66;;;20.09;40.19
7660;BME280;3872;47.902;8.162;2024-03-22T09:17:45;92213.28;;;20.46;39.63
7660;BME280;3872;47.902;8.162;2024-03-22T09:20:11;92215.88;;;20.43;38.72
7660;BME280;3872;47.902;8.162;2024-03-22T09:22:38;92203.28;;;20.75;38.78
7660;BME280;3872;47.902;8.162;2024-03-22T09:25:05;92204.00;;;21.26;38.73
7660;BME280;3872;47.902;8.162;2024-03-22T09:27:32;92206.78;;;21.48;38.97
7660;BME280;3872;47.902;8.162;2024-03-22T09:29:57;92206.50;;;21.96;38.07
7660;BME280;3872;47.902;8.162;2024-03-22T09:32:25;92204.97;;;21.53;36.13
7660;BME280;3872;47.902;8.162;2024-03-22T09:34:51;92205.03;;;21.02;36.51
7660;BME280;3872;47.902;8.162;2024-03-22T09:37:18;92199.69;;;20.36;37.88
7660;BME280;3872;47.902;8.162;2024-03-22T09:39:44;92199.16;;;19.03;40.48
7660;BME280;3872;47.902;8.162;2024-03-22T09:42:16;92196.47;;;19.71;39.65
7660;BME280;3872;47.902;8.162;2024-03-22T09:44:45;92191.09;;;20.61;37.55
7660;BME280;3872;47.902;8.162;2024-03-22T09:47:14;92184.75;;;21.01;37.53
7660;BME280;3872;47.902;8.162;2024-03-22T09:49:42;92186.00;;;20.25;38.99
7660;BME280;3872;47.902;8.162;2024-03-22T09:52:12;92187.53;;;20.89;38.88
7660;BME280;3872;47.902;8.162;2024-03-22T09:54:38;92181.00;;;21.60;39.05
7660;BME280;3872;47.902;8.162;2024-03-22T09:57:08;92175.09;;;21.93;37.03
7660;BME280;3872;47.902;8.162;2024-03-22T09:59:35;92184.19;;;22.30;36.90
7660;BME280;3872;47.902;8.162;2024-03-22T10:02:02;92192.53;;;19.25;39.15
7660;BME280;3872;47.902;8.162;2024-03-22T10:04:28;92181.00;;;21.05;37.86
7660;BME280;3872;47.902;8.162;2024-03-22T10:06:56;92182.94;;;22.01;35.75
7660;BME280;3872;47.902;8.162;2024-03-22T10:09:28;92164.81;;;22.89;34.55
7660;BME280;3872;47.902;8.162;2024-03-22T10:11:55;92173.75;;;22.02;36.11
7660;BME280;3872;47.902;8.162;2024-03-22T10:14:20;92173.41;;;23.32;33.83
7660;BME280;3872;47.902;8.162;2024-03-22T10:16:47;92175.63;;;23.86;32.95
7660;BME280;3872;47.902;8.162;2024-03-22T10:19:13;92168.03;;;23.02;34.21
7660;BME280;3872;47.902;8.162;2024-03-22T10:21:39;92173.19;;;21.93;34.49
7660;BME280;3872;47.902;8.162;2024-03-22T10:24:07;92175.94;;;21.97;35.00
7660;BME280;3872;47.902;8.162;2024-03-22T10:26:34;92175.84;;;21.51;35.28
7660;BME280;3872;47.902;8.162;2024-03-22T10:28:59;92175.75;;;21.09;36.64
7660;BME280;3872;47.902;8.162;2024-03-22T10:31:26;92178.22;;;22.40;34.62
7660;BME280;3872;47.902;8.162;2024-03-22T10:33:54;92170.72;;;21.84;34.68
7660;BME280;3872;47.902;8.162;2024-03-22T10:36:21;92169.16;;;22.48;31.92
7660;BME280;3872;47.902;8.162;2024-03-22T10:38:48;92161.44;;;23.89;30.92
7660;BME280;3872;47.902;8.162;2024-03-22T10:41:18;92158.59;;;23.41;30.87
7660;BME280;3872;47.902;8.162;2024-03-22T10:43:43;92156.69;;;23.42;30.77
7660;BME280;3872;47.902;8.162;2024-03-22T10:46:10;92148.66;;;21.91;30.03
7660;BME280;3872;47.902;8.162;2024-03-22T10:48:37;92143.97;;;24.50;28.29
7660;BME280;3872;47.902;8.162;2024-03-22T10:51:08;92139.47;;;25.26;25.50
7660;BME280;3872;47.902;8.162;2024-03-22T10:53:35;92129.13;;;24.74;26.03
7660;BME280;3872;47.902;8.162;2024-03-22T10:56:03;92127.16;;;25.25;23.69
7660;BME280;3872;47.902;8.162;2024-03-22T10:58:31;92147.03;;;19.77;25.67
7660;BME280;3872;47.902;8.162;2024-03-22T11:00:57;92129.59;;;23.24;23.37
7660;BME280;3872;47.902;8.162;2024-03-22T11:03:26;92128.19;;;24.04;23.84
7660;BME280;3872;47.902;8.162;2024-03-22T11:05:55;92124.94;;;23.88;22.31
7660;BME280;3872;47.902;8.162;2024-03-22T11:08:25;92114.63;;;24.34;23.94
7660;BME280;3872;47.902;8.162;2024-03-22T11:10:52;92117.31;;;24.34;23.28
7660;BME280;3872;47.902;8.162;2024-03-22T11:13:18;92111.47;;;24.22;23.17
7660;BME280;3872;47.902;8.162;2024-03-22T11:15:48;92114.94;;;24.22;23.28
7660;BME280;3872;47.902;8.162;2024-03-22T11:18:14;92109.25;;;25.79;22.02
7660;BME280;3872;47.902;8.162;2024-03-22T11:20:41;92096.78;;;25.28;22.87
7660;BME280;3872;47.902;8.162;2024-03-22T11:23:07;92096.66;;;24.45;22.88
7660;BME280;3872;47.902;8.162;2024-03-22T11:25:35;92094.16;;;25.50;21.71
7660;BME280;3872;47.902;8.162;2024-03-22T11:28:01;92083.63;;;25.13;22.26
7660;BME280;3872;47.902;8.162;2024-03-22T11:30:28;92081.53;;;25.64;21.35
7660;BME280;3872;47.902;8.162;2024-03-22T11:32:56;92083.66;;;25.23;21.46
7660;BME280;3872;47.902;8.162;2024-03-22T11:35:23;92066.53;;;25.92;20.74
7660;BME280;3872;47.902;8.162;2024-03-22T11:37:50;92065.72;;;26.80;20.22
7660;BME280;3872;47.902;8.162;2024-03-22T11:40:17;92065.84;;;22.84;22.91
7660;BME280;3872;47.902;8.162;2024-03-22T11:42:44;92070.38;;;25.87;20.93
7660;BME280;3872;47.902;8.162;2024-03-22T11:45:14;92058.47;;;26.45;20.44
7660;BME280;3872;47.902;8.162;2024-03-22T11:47:40;92051.13;;;26.10;20.00
7660;BME280;3872;47.902;8.162;2024-03-22T11:50:11;92055.19;;;24.53;20.79
7660;BME280;3872;47.902;8.162;2024-03-22T11:52:40;92049.25;;;26.28;19.87
7660;BME280;3872;47.902;8.162;2024-03-22T11:55:06;92050.59;;;25.26;20.92
7660;BME280;3872;47.902;8.162;2024-03-22T11:57:32;92043.81;;;26.39;21.25
7660;BME280;3872;47.902;8.162;2024-03-22T12:00:00;92041.25;;;27.40;19.87
7660;BME280;3872;47.902;8.162;2024-03-22T12:02:26;92036.09;;;26.23;21.58
7660;BME280;3872;47.902;8.162;2024-03-22T12:04:53;92037.28;;;26.19;21.13
7660;BME280;3872;47.902;8.162;2024-03-22T12:07:20;92036.59;;;23.83;23.19
7660;BME280;3872;47.902;8.162;2024-03-22T12:09:46;92031.00;;;25.44;21.93
7660;BME280;3872;47.902;8.162;2024-03-22T12:12:12;92038.13;;;23.07;24.01
7660;BME280;3872;47.902;8.162;2024-03-22T12:14:39;92023.78;;;25.83;22.26
7660;BME280;3872;47.902;8.162;2024-03-22T12:17:06;92021.47;;;26.24;21.62
7660;BME280;3872;47.902;8.162;2024-03-22T12:19:33;92036.28;;;21.53;26.15
7660;BME280;3872;47.902;8.162;2024-03-22T12:21:59;92015.97;;;25.32;23.49
7660;BME280;3872;47.902;8.162;2024-03-22T12:24:28;92010.28;;;26.22;22.47
7660;BME280;3872;47.902;8.162;2024-03-22T12:26:55;92009.53;;;26.25;23.10
7660;BME280;3872;47.902;8.162;2024-03-22T12:29:21;92003.13;;;27.20;21.53
7660;BME280;3872;47.902;8.162;2024-03-22T12:31:47;91991.63;;;27.75;20.96
7660;BME280;3872;47.902;8.162;2024-03-22T12:34:13;91999.81;;;26.77;22.26
7660;BME280;3872;47.902;8.162;2024-03-22T12:36:40;92006.34;;;25.38;24.26
7660;BME280;3872;47.902;8.162;2024-03-22T12:39:05;91994.97;;;27.31;22.76
7660;BME280;3872;47.902;8.162;2024-03-22T12:41:34;91993.69;;;26.52;24.06
7660;BME280;3872;47.902;8.162;2024-03-22T12:44:00;91997.19;;;26.45;23.90
7660;BME280;3872;47.902;8.162;2024-03-22T12:46:28;91984.47;;;26.49;24.38
7660;BME280;3872;47.902;8.162;2024-03-22T12:48:53;91989.03;;;27.61;23.38
7660;BME280;3872;47.902;8.162;2024-03-22T12:51:20;91983.88;;;27.11;23.47
7660;BME280;3872;47.902;8.162;2024-03-22T12:53:46;91986.72;;;25.45;26.41
7660;BME280;3872;47.902;8.162;2024-03-22T12:56:13;91983.09;;;27.11;24.02
7660;BME280;3872;47.902;8.162;2024-03-22T12:58:39;91983.66;;;25.35;25.28
7660;BME280;3872;47.902;8.162;2024-03-22T13:01:08;91972.09;;;26.63;25.47
7660;BME280;3872;47.902;8.162;2024-03-22T13:03:33;91971.38;;;26.34;24.81
7660;BME280;3872;47.902;8.162;2024-03-22T13:06:00;91964.44;;;26.29;24.71
7660;BME280;3872;47.902;8.162;2024-03-22T13:08:26;91972.09;;;23.02;27.32
7660;BME280;3872;47.902;8.162;2024-03-22T13:10:53;91953.53;;;26.75;23.68
7660;BME280;3872;47.902;8.162;2024-03-22T13:13:18;91940.03;;;28.00;22.61
7660;BME280;3872;47.902;8.162;2024-03-22T13:15:46;91935.28;;;28.56;22.18
7660;BME280;3872;47.902;8.162;2024-03-22T13:18:12;91936.63;;;28.71;21.53
7660;BME280;3872;47.902;8.162;2024-03-22T13:20:39;91935.00;;;27.50;22.22